Time;durP1;ratioP1;P1;durP2;ratioP2;P2;SDS_P1;SDS_P2;PMS_P1;PMS_P2;Temp;Humidity;BMP_temperature;BMP_pressure;BME280_temperature;BME280_humidity;BME280_pressure;Samples;Min_cycle;Max_cycle;Signal;HPM_P1;HPM_P2
2023/04/18 00:00:00;;;;;;;14.75;3.00;;;14.90;99.90;;;;;;5087749;28;20410;-74
2023/04/18 00:02:28;;;;;;;13.02;3.05;;;14.80;99.90;;;;;;5117192;28;20400;-74
2023/04/18 00:04:55;;;;;;;13.50;3.10;;;14.80;99.90;;;;;;5083316;28;20483;-74
2023/04/18 00:07:21;;;;;;;14.20;2.90;;;14.70;99.90;;;;;;5104604;28;20929;-74
2023/04/18 00:09:47;;;;;;;12.30;2.60;;;14.60;99.90;;;;;;5081428;28;20431;-74
2023/04/18 00:12:14;;;;;;;11.48;2.50;;;14.60;99.90;;;;;;5084803;28;20402;-74
2023/04/18 00:14:40;;;;;;;9.32;2.33;;;14.60;99.90;;;;;;5079382;28;20480;-74
2023/04/18 00:17:07;;;;;;;11.32;2.55;;;14.80;99.90;;;;;;5099989;28;20470;-74
2023/04/18 00:19:35;;;;;;;9.13;2.13;;;15.00;99.90;;;;;;5096823;28;20417;-74
2023/04/18 00:22:01;;;;;;;13.38;2.45;;;15.00;99.90;;;;;;5092927;28;20883;-74
2023/04/18 00:24:28;;;;;;;14.30;2.63;;;15.00;99.90;;;;;;5086624;28;20452;-74
2023/04/18 00:26:55;;;;;;;10.37;2.50;;;14.90;99.90;;;;;;5103814;28;20489;-74
2023/04/18 00:29:22;;;;;;;12.32;2.40;;;14.80;99.90;;;;;;5100091;28;20460;-74
2023/04/18 00:31:48;;;;;;;14.77;2.50;;;14.60;99.90;;;;;;5108923;27;20439;-74
2023/04/18 00:34:14;;;;;;;11.50;2.40;;;14.70;99.90;;;;;;5088486;27;20485;-74
2023/04/18 00:36:40;;;;;;;10.98;2.58;;;14.70;99.90;;;;;;5120703;27;20421;-74
2023/04/18 00:39:07;;;;;;;10.73;2.22;;;14.70;99.90;;;;;;5113824;27;20820;-74
2023/04/18 00:41:33;;;;;;;8.68;2.33;;;14.60;99.90;;;;;;5107905;27;20874;-74
2023/04/18 00:44:00;;;;;;;15.52;2.38;;;14.60;99.90;;;;;;5104233;27;21034;-74
2023/04/18 00:46:26;;;;;;;9.55;2.42;;;14.60;99.90;;;;;;5103055;27;20476;-74
2023/04/18 00:48:52;;;;;;;7.10;2.00;;;14.60;99.90;;;;;;5102769;28;20439;-74
2023/04/18 00:51:20;;;;;;;9.48;2.35;;;14.40;99.90;;;;;;5087358;28;20973;-74
2023/04/18 00:53:46;;;;;;;8.13;2.15;;;14.20;99.90;;;;;;5088805;27;20964;-74
2023/04/18 00:56:13;;;;;;;12.07;2.58;;;14.00;99.90;;;;;;5105147;27;20448;-74
2023/04/18 00:58:39;;;;;;;10.65;2.30;;;13.90;99.90;;;;;;5101153;28;20910;-74
2023/04/18 01:01:06;;;;;;;11.05;2.40;;;13.90;99.90;;;;;;5098007;27;20420;-74
2023/04/18 01:03:33;;;;;;;14.65;2.60;;;14.00;99.90;;;;;;5093603;27;20422;-74
2023/04/18 01:06:00;;;;;;;14.40;2.95;;;14.00;99.90;;;;;;5100475;28;20430;-74
2023/04/18 01:08:27;;;;;;;11.82;2.50;;;14.10;99.90;;;;;;5110842;27;20408;-74
2023/04/18 01:10:53;;;;;;;9.43;2.25;;;14.10;99.90;;;;;;5095830;28;20784;-74
2023/04/18 01:13:20;;;;;;;6.53;2.10;;;14.10;99.90;;;;;;5087622;27;20541;-74
2023/04/18 01:15:49;;;;;;;11.43;2.30;;;14.10;99.90;;;;;;5078652;28;21028;-74
2023/04/18 01:18:16;;;;;;;9.75;2.40;;;14.00;99.90;;;;;;5090385;27;20461;-74
2023/04/18 01:20:51;;;;;;;10.63;2.45;;;14.10;99.90;;;;;;5105531;27;20398;-74
2023/04/18 01:23:18;;;;;;;10.90;2.55;;;14.10;99.90;;;;;;5086359;28;20416;-74
2023/04/18 01:25:48;;;;;;;13.03;2.27;;;14.10;99.90;;;;;;5081537;28;20440;-74
2023/04/18 01:28:15;;;;;;;10.77;2.55;;;14.10;99.90;;;;;;5086258;27;20417;-74
2023/04/18 01:30:42;;;;;;;12.60;2.50;;;14.20;99.90;;;;;;5075777;28;20837;-74
2023/04/18 01:33:08;;;;;;;10.95;2.80;;;14.20;99.90;;;;;;5095877;27;20438;-74
2023/04/18 01:35:35;;;;;;;14.75;3.10;;;14.20;99.90;;;;;;5094913;27;20961;-74
2023/04/18 01:38:02;;;;;;;17.73;3.00;;;14.20;99.90;;;;;;5084766;27;20411;-74
2023/04/18 01:40:29;;;;;;;13.88;3.22;;;14.20;99.90;;;;;;5081250;28;20398;-74
2023/04/18 01:42:55;;;;;;;15.57;3.08;;;14.20;99.90;;;;;;5083847;27;20493;-74
2023/04/18 01:45:21;;;;;;;15.48;3.15;;;14.30;99.90;;;;;;5080197;28;20909;-74
2023/04/18 01:47:48;;;;;;;15.48;3.33;;;14.40;99.90;;;;;;5086939;28;20408;-74
2023/04/18 01:50:14;;;;;;;22.35;3.33;;;14.50;99.90;;;;;;5103681;27;20415;-74
2023/04/18 01:52:40;;;;;;;19.00;3.47;;;14.70;99.90;;;;;;5102603;28;20475;-74
2023/04/18 01:55:08;;;;;;;15.82;3.50;;;14.90;99.90;;;;;;5103513;27;20514;-72
2023/04/18 01:57:38;;;;;;;16.35;3.60;;;15.00;99.90;;;;;;5120485;27;20426;-73
2023/04/18 02:00:06;;;;;;;24.52;4.03;;;15.20;99.90;;;;;;5102101;28;21228;-72
2023/04/18 02:02:33;;;;;;;20.23;3.70;;;15.30;99.90;;;;;;5104954;27;20408;-72
2023/04/18 02:04:59;;;;;;;20.45;3.90;;;15.20;99.90;;;;;;5074657;28;20424;-72
2023/04/18 02:07:25;;;;;;;20.90;3.77;;;15.20;99.90;;;;;;5091152;27;20389;-72
2023/04/18 02:09:51;;;;;;;19.50;3.80;;;15.10;99.90;;;;;;5101153;28;20414;-72
2023/04/18 02:12:18;;;;;;;13.43;3.60;;;15.00;99.90;;;;;;5085919;28;20424;-73
2023/04/18 02:14:44;;;;;;;14.93;3.50;;;14.90;99.90;;;;;;5093992;28;20420;-72
2023/04/18 02:17:10;;;;;;;18.33;3.67;;;14.90;99.90;;;;;;5094603;27;20500;-73
2023/04/18 02:19:36;;;;;;;17.85;3.78;;;14.90;99.90;;;;;;5097083;28;20487;-72
2023/04/18 02:22:03;;;;;;;19.75;3.47;;;14.80;99.90;;;;;;5091018;28;20400;-72
2023/04/18 02:24:29;;;;;;;23.63;4.15;;;14.70;99.90;;;;;;5109971;27;20441;-72
2023/04/18 02:26:55;;;;;;;16.50;3.35;;;14.70;99.90;;;;;;5100664;27;20416;-72
2023/04/18 02:29:21;;;;;;;16.97;3.10;;;14.80;99.90;;;;;;5111908;27;20515;-72
2023/04/18 02:31:47;;;;;;;16.35;3.03;;;14.80;99.90;;;;;;5097817;28;20422;-72
2023/04/18 02:34:14;;;;;;;12.10;2.90;;;14.80;99.90;;;;;;5109262;27;20405;-72
2023/04/18 02:36:40;;;;;;;13.77;3.40;;;14.70;99.90;;;;;;5121751;27;20448;-72
2023/04/18 02:39:06;;;;;;;18.77;4.05;;;14.60;99.90;;;;;;5088471;27;20422;-72
2023/04/18 02:41:33;;;;;;;16.02;3.30;;;14.50;99.90;;;;;;5098274;27;20400;-72
2023/04/18 02:43:59;;;;;;;20.70;3.67;;;14.50;99.90;;;;;;5087488;27;20416;-72
2023/04/18 02:46:26;;;;;;;19.95;4.05;;;14.50;99.90;;;;;;5109165;27;20412;-72
2023/04/18 02:48:52;;;;;;;15.80;3.70;;;14.40;99.90;;;;;;5099507;28;20498;-72
2023/04/18 02:51:18;;;;;;;18.35;3.35;;;14.40;99.90;;;;;;5108484;27;22345;-72
2023/04/18 02:53:45;;;;;;;18.98;3.53;;;14.40;99.90;;;;;;5106739;27;20406;-72
2023/04/18 02:56:18;;;;;;;14.70;3.45;;;14.20;99.90;;;;;;5099633;28;20748;-73
2023/04/18 02:58:44;;;;;;;14.32;3.03;;;14.00;99.90;;;;;;5102797;27;20951;-72
2023/04/18 03:01:11;;;;;;;19.25;3.67;;;14.10;99.90;;;;;;5089593;28;20932;-72
2023/04/18 03:03:37;;;;;;;15.52;3.30;;;14.10;99.90;;;;;;5092588;27;20411;-72
2023/04/18 03:06:03;;;;;;;17.52;3.65;;;14.10;99.90;;;;;;5100876;27;20496;-72
2023/04/18 03:08:30;;;;;;;15.77;3.37;;;14.00;99.90;;;;;;5100323;27;20413;-74
2023/04/18 03:10:56;;;;;;;15.88;3.10;;;13.90;99.90;;;;;;5101357;27;20500;-74
2023/04/18 03:13:23;;;;;;;17.45;3.70;;;13.90;99.90;;;;;;5103140;27;20425;-73
2023/04/18 03:15:49;;;;;;;16.33;3.08;;;13.90;99.90;;;;;;5084775;28;20407;-74
2023/04/18 03:18:16;;;;;;;17.33;3.22;;;13.90;99.90;;;;;;5103429;27;20463;-74
2023/04/18 03:20:42;;;;;;;19.10;3.33;;;13.90;99.90;;;;;;5083684;28;20409;-74
2023/04/18 03:23:09;;;;;;;18.02;3.42;;;13.90;99.90;;;;;;5088588;28;20436;-74
2023/04/18 03:25:35;;;;;;;18.40;3.38;;;13.90;99.90;;;;;;5104405;27;20420;-74
2023/04/18 03:28:01;;;;;;;19.48;3.60;;;14.00;99.90;;;;;;5092507;28;20399;-74
2023/04/18 03:30:27;;;;;;;17.53;3.60;;;14.10;99.90;;;;;;5098254;27;21152;-74
2023/04/18 03:32:54;;;;;;;20.38;3.55;;;14.10;99.90;;;;;;5104743;27;20415;-74
2023/04/18 03:35:21;;;;;;;23.05;3.83;;;14.20;99.90;;;;;;5100276;27;20752;-74
2023/04/18 03:37:47;;;;;;;23.80;3.67;;;14.30;99.90;;;;;;5100444;28;20776;-74
2023/04/18 03:40:13;;;;;;;22.83;4.10;;;14.40;99.90;;;;;;5079205;28;20819;-74
2023/04/18 03:42:39;;;;;;;20.23;3.50;;;14.60;99.90;;;;;;5107174;27;20415;-74
2023/04/18 03:45:06;;;;;;;21.52;3.53;;;14.70;99.90;;;;;;5095123;28;20413;-74
2023/04/18 03:47:33;;;;;;;20.65;3.88;;;14.70;99.90;;;;;;5099347;28;20412;-73
2023/04/18 03:49:59;;;;;;;17.48;3.55;;;14.70;99.90;;;;;;5086960;28;20439;-74
2023/04/18 03:52:25;;;;;;;18.87;3.63;;;14.60;99.90;;;;;;5081536;28;20419;-74
2023/04/18 03:54:51;;;;;;;16.13;3.30;;;14.60;99.90;;;;;;5092918;28;20427;-74
2023/04/18 03:57:17;;;;;;;18.92;3.38;;;14.50;99.90;;;;;;5080688;28;20406;-74
2023/04/18 03:59:44;;;;;;;16.60;3.55;;;14.40;99.90;;;;;;5081290;28;20980;-74
2023/04/18 04:02:10;;;;;;;18.17;4.00;;;14.40;99.90;;;;;;5105581;28;20435;-74
2023/04/18 04:04:37;;;;;;;20.13;3.80;;;14.40;99.90;;;;;;5085466;28;21527;-74
2023/04/18 04:07:03;;;;;;;22.00;4.07;;;14.40;99.90;;;;;;5095258;28;20409;-74
2023/04/18 04:09:30;;;;;;;20.25;4.10;;;14.50;99.90;;;;;;5084353;28;20468;-74
2023/04/18 04:11:56;;;;;;;22.47;3.90;;;14.50;99.90;;;;;;5107614;28;20443;-73
2023/04/18 04:14:23;;;;;;;19.17;3.60;;;14.60;99.90;;;;;;5091552;28;20423;-74
2023/04/18 04:16:50;;;;;;;23.10;3.58;;;14.60;99.90;;;;;;5096143;28;20408;-74
2023/04/18 04:19:16;;;;;;;16.30;3.60;;;14.70;99.90;;;;;;5064652;28;22173;-74
2023/04/18 04:21:43;;;;;;;17.77;3.67;;;14.80;99.90;;;;;;5095399;28;20948;-74
2023/04/18 04:24:09;;;;;;;18.48;3.53;;;14.70;99.90;;;;;;5090028;28;20892;-73
2023/04/18 04:26:35;;;;;;;15.98;3.30;;;14.70;99.90;;;;;;5109046;28;20400;-74
2023/04/18 04:29:02;;;;;;;19.33;3.80;;;14.70;99.90;;;;;;5098579;28;20395;-74
2023/04/18 04:31:28;;;;;;;16.50;3.65;;;14.70;99.90;;;;;;5073844;28;20971;-74
2023/04/18 04:33:55;;;;;;;18.02;3.83;;;14.80;99.90;;;;;;5105554;28;20415;-74
2023/04/18 04:36:23;;;;;;;20.30;3.88;;;14.90;99.90;;;;;;5111953;28;20475;-74
2023/04/18 04:38:51;;;;;;;25.30;4.15;;;15.10;99.90;;;;;;5100620;28;20900;-74
2023/04/18 04:41:17;;;;;;;16.27;3.45;;;15.30;99.90;;;;;;5099094;28;20411;-73
2023/04/18 04:43:45;;;;;;;19.95;3.65;;;15.40;99.90;;;;;;5106342;28;20398;-73
2023/04/18 04:46:13;;;;;;;20.00;3.78;;;15.40;99.90;;;;;;5088074;28;21060;-74
2023/04/18 04:48:39;;;;;;;19.60;3.58;;;15.50;99.90;;;;;;5079746;28;20408;-74
2023/04/18 04:51:06;;;;;;;15.47;3.43;;;15.60;99.90;;;;;;5092895;28;20408;-73
2023/04/18 04:53:32;;;;;;;18.35;4.13;;;15.70;99.90;;;;;;5103810;28;20407;-74
2023/04/18 04:55:58;;;;;;;19.38;3.50;;;15.70;99.90;;;;;;5098822;28;20415;-74
2023/04/18 04:58:24;;;;;;;23.67;3.80;;;15.70;99.90;;;;;;5065544;28;20409;-74
2023/04/18 05:00:51;;;;;;;17.67;3.77;;;15.80;99.90;;;;;;5096134;28;20401;-74
2023/04/18 05:03:18;;;;;;;15.07;3.70;;;15.90;99.90;;;;;;5105472;28;20564;-74
2023/04/18 05:05:45;;;;;;;20.23;3.70;;;16.00;99.90;;;;;;5106109;28;20400;-74
2023/04/18 05:08:11;;;;;;;18.88;3.92;;;16.00;99.90;;;;;;5099275;28;20412;-75
2023/04/18 05:10:37;;;;;;;18.60;3.90;;;16.20;99.90;;;;;;5109721;28;20476;-75
2023/04/18 05:13:04;;;;;;;16.93;3.90;;;16.30;99.90;;;;;;5100812;28;20410;-75
2023/04/18 05:15:31;;;;;;;18.27;3.60;;;16.40;99.90;;;;;;5083132;28;20406;-75
2023/04/18 05:17:57;;;;;;;16.77;3.85;;;16.50;99.90;;;;;;5114536;27;20830;-75
2023/04/18 05:20:24;;;;;;;24.47;4.03;;;16.60;99.90;;;;;;5080637;27;20417;-75
2023/04/18 05:22:50;;;;;;;24.38;4.38;;;16.70;99.90;;;;;;5106899;28;20401;-75
2023/04/18 05:25:16;;;;;;;21.33;3.92;;;16.80;99.90;;;;;;5098289;27;20485;-76
2023/04/18 05:27:45;;;;;;;19.15;4.40;;;17.10;99.90;;;;;;5087023;28;20885;-76
2023/04/18 05:30:11;;;;;;;21.73;4.80;;;17.20;99.90;;;;;;5108255;27;20434;-75
2023/04/18 05:32:38;;;;;;;21.30;5.00;;;17.30;99.90;;;;;;5073526;28;20443;-75
2023/04/18 05:35:07;;;;;;;26.63;5.43;;;17.40;99.90;;;;;;5087348;28;20400;-76
2023/04/18 05:37:34;;;;;;;20.00;4.80;;;17.30;99.90;;;;;;5083801;28;20400;-76
2023/04/18 05:40:00;;;;;;;20.65;4.93;;;17.40;99.90;;;;;;5102615;27;21173;-76
2023/04/18 05:42:27;;;;;;;25.33;5.20;;;17.50;99.90;;;;;;5100942;27;20841;-75
2023/04/18 05:44:54;;;;;;;23.43;5.00;;;17.50;99.90;;;;;;5079110;27;20540;-76
2023/04/18 05:47:20;;;;;;;22.85;4.20;;;17.70;99.90;;;;;;5103522;27;20779;-75
2023/04/18 05:49:46;;;;;;;28.23;4.72;;;17.80;99.90;;;;;;5098767;28;20982;-75
2023/04/18 05:52:13;;;;;;;22.40;4.10;;;17.90;99.90;;;;;;5083086;28;21076;-75
2023/04/18 05:54:39;;;;;;;19.75;4.18;;;17.90;99.90;;;;;;5103941;27;20418;-75
2023/04/18 05:57:06;;;;;;;27.23;4.57;;;17.90;99.90;;;;;;5117472;27;20905;-76
2023/04/18 05:59:32;;;;;;;22.40;3.92;;;17.90;99.90;;;;;;5085123;27;20943;-75
2023/04/18 06:01:58;;;;;;;18.33;3.97;;;18.00;99.90;;;;;;5105886;27;20406;-76
2023/04/18 06:04:24;;;;;;;19.15;4.00;;;18.10;99.90;;;;;;5098101;28;20401;-75
2023/04/18 06:06:51;;;;;;;23.08;4.65;;;18.40;99.90;;;;;;5100271;27;20424;-76
2023/04/18 06:09:18;;;;;;;16.98;4.00;;;18.40;99.90;;;;;;5085153;28;20414;-75
2023/04/18 06:11:44;;;;;;;25.75;4.68;;;18.40;99.90;;;;;;5095221;27;21123;-76
2023/04/18 06:14:10;;;;;;;25.20;4.68;;;18.60;99.90;;;;;;5106438;27;20467;-75
2023/04/18 06:16:37;;;;;;;20.15;4.43;;;18.60;99.90;;;;;;5100108;27;20405;-76
2023/04/18 06:19:04;;;;;;;23.73;4.33;;;18.60;99.90;;;;;;5100937;27;20294;-76
2023/04/18 06:21:30;;;;;;;31.73;4.73;;;18.60;99.90;;;;;;5103444;27;20746;-76
2023/04/18 06:23:56;;;;;;;24.97;4.30;;;18.70;99.90;;;;;;5102256;27;20181;-76
2023/04/18 06:26:23;;;;;;;25.73;4.13;;;18.80;99.90;;;;;;5088472;28;20322;-76
2023/04/18 06:28:49;;;;;;;23.55;4.70;;;18.80;99.90;;;;;;5101709;27;21126;-76
2023/04/18 06:31:15;;;;;;;22.63;4.35;;;19.00;99.90;;;;;;5072692;27;20422;-76
2023/04/18 06:33:42;;;;;;;20.98;4.07;;;19.10;99.90;;;;;;5080872;28;20402;-75
2023/04/18 06:36:08;;;;;;;23.65;4.47;;;19.10;99.90;;;;;;5091728;28;20906;-75
2023/04/18 06:38:34;;;;;;;19.08;4.50;;;19.20;99.90;;;;;;5073881;27;20412;-76
2023/04/18 06:41:01;;;;;;;21.52;4.22;;;19.20;99.90;;;;;;5090572;27;20433;-76
2023/04/18 06:43:27;;;;;;;19.40;4.00;;;19.20;99.90;;;;;;5085148;27;21164;-75
2023/04/18 06:45:55;;;;;;;19.88;3.75;;;19.30;99.90;;;;;;5102967;27;20467;-76
2023/04/18 06:48:21;;;;;;;21.63;3.92;;;19.30;99.90;;;;;;5099709;27;20905;-76
2023/04/18 06:50:48;;;;;;;17.27;3.60;;;19.40;99.90;;;;;;5085630;28;20777;-76
2023/04/18 06:53:14;;;;;;;17.80;3.50;;;19.40;99.90;;;;;;5084177;28;20185;-76
2023/04/18 06:55:41;;;;;;;23.97;3.80;;;19.40;99.90;;;;;;5089737;27;20189;-75
2023/04/18 06:58:08;;;;;;;24.73;4.17;;;19.50;99.90;;;;;;5075173;28;20295;-76
2023/04/18 07:00:35;;;;;;;29.00;3.83;;;19.50;99.90;;;;;;5086179;27;20769;-75
2023/04/18 07:03:08;;;;;;;19.80;3.93;;;19.60;99.90;;;;;;5106708;27;20244;-76
2023/04/18 07:05:36;;;;;;;17.90;3.10;;;19.70;99.90;;;;;;5101425;27;20556;-76
2023/04/18 07:08:02;;;;;;;20.73;4.07;;;19.80;99.90;;;;;;5087221;27;20240;-76
2023/04/18 07:10:29;;;;;;;16.30;3.20;;;19.80;99.90;;;;;;5109205;27;20212;-76
2023/04/18 07:12:55;;;;;;;19.10;3.63;;;19.90;99.90;;;;;;5110387;27;20199;-76
2023/04/18 07:15:21;;;;;;;16.53;3.60;;;20.00;99.90;;;;;;5100499;27;20197;-75
2023/04/18 07:17:48;;;;;;;15.75;3.30;;;20.10;99.90;;;;;;5087102;28;20428;-76
2023/04/18 07:20:15;;;;;;;10.10;3.20;;;20.30;99.90;;;;;;5086929;28;20449;-76
2023/04/18 07:22:41;;;;;;;15.73;3.67;;;20.50;99.90;;;;;;5101219;28;20431;-75
2023/04/18 07:25:08;;;;;;;20.08;3.85;;;20.40;99.90;;;;;;5101801;27;20417;-76
2023/04/18 07:27:36;;;;;;;22.92;3.60;;;20.50;99.90;;;;;;5068043;27;20452;-76
2023/04/18 07:30:04;;;;;;;16.88;3.55;;;20.60;99.90;;;;;;5106395;27;20189;-76
2023/04/18 07:32:30;;;;;;;18.53;3.70;;;20.60;99.90;;;;;;5085066;28;20185;-76
2023/04/18 07:34:56;;;;;;;26.87;3.87;;;20.60;99.90;;;;;;5073524;28;20187;-76
2023/04/18 07:37:23;;;;;;;23.87;3.90;;;20.70;99.90;;;;;;5100707;27;20190;-76
2023/04/18 07:39:51;;;;;;;17.53;3.67;;;20.90;99.90;;;;;;5105853;27;20303;-76
2023/04/18 07:42:17;;;;;;;18.63;3.40;;;21.30;99.90;;;;;;5087531;27;20181;-76
2023/04/18 07:44:43;;;;;;;21.63;3.73;;;21.30;99.90;;;;;;5099893;27;20923;-76
2023/04/18 07:47:10;;;;;;;17.40;3.20;;;21.70;99.90;;;;;;5084100;28;20391;-76
2023/04/18 07:49:37;;;;;;;18.53;3.43;;;21.80;99.90;;;;;;5093531;28;20186;-76
2023/04/18 07:52:04;;;;;;;17.50;3.13;;;22.00;99.90;;;;;;5075909;28;20197;-76
2023/04/18 07:54:31;;;;;;;19.52;3.67;;;22.20;99.90;;;;;;5088321;28;20190;-76
2023/04/18 07:56:58;;;;;;;18.03;3.63;;;22.50;99.90;;;;;;5108204;28;20191;-76
2023/04/18 07:59:24;;;;;;;14.07;2.60;;;22.50;99.90;;;;;;5097883;28;20209;-76
2023/04/18 08:01:51;;;;;;;20.52;3.28;;;22.40;99.90;;;;;;5106484;28;20181;-76
2023/04/18 08:04:17;;;;;;;19.88;3.63;;;22.40;99.90;;;;;;5077862;28;20178;-76
2023/04/18 08:06:43;;;;;;;22.57;3.40;;;22.40;99.90;;;;;;5079157;28;20795;-75
2023/04/18 08:09:10;;;;;;;17.70;3.63;;;22.40;99.90;;;;;;5083014;28;20192;-76
2023/04/18 08:11:37;;;;;;;14.50;3.85;;;22.60;99.90;;;;;;5097044;28;20648;-76
2023/04/18 08:14:07;;;;;;;14.07;3.28;;;22.60;99.90;;;;;;5094378;28;20272;-76
2023/04/18 08:16:33;;;;;;;16.92;3.17;;;22.60;99.90;;;;;;5079591;28;20186;-76
2023/04/18 08:18:59;;;;;;;15.10;3.87;;;22.60;99.90;;;;;;5081780;28;20209;-76
2023/04/18 08:21:25;;;;;;;13.90;3.45;;;22.60;99.90;;;;;;5078777;28;20270;-76
2023/04/18 08:23:52;;;;;;;18.10;3.83;;;22.70;99.90;;;;;;5083099;28;20197;-76
2023/04/18 08:26:20;;;;;;;22.17;3.80;;;22.90;99.90;;;;;;5094982;28;20644;-76
2023/04/18 08:28:48;;;;;;;17.95;3.63;;;23.00;99.90;;;;;;5087700;28;20567;-76
2023/04/18 08:31:15;;;;;;;19.42;3.47;;;23.10;99.90;;;;;;5067614;28;21551;-76
2023/04/18 08:33:42;;;;;;;9.77;2.90;;;23.20;99.90;;;;;;5077675;28;20193;-76
2023/04/18 08:36:09;;;;;;;15.00;3.30;;;23.20;99.90;;;;;;5086596;28;20235;-76
2023/04/18 08:38:35;;;;;;;11.35;3.50;;;23.20;99.90;;;;;;5096143;28;20772;-76
2023/04/18 08:41:02;;;;;;;14.80;3.42;;;23.10;99.90;;;;;;5094970;28;20771;-76
2023/04/18 08:43:30;;;;;;;11.38;3.10;;;23.20;99.90;;;;;;5077369;28;20175;-76
2023/04/18 08:46:00;;;;;;;12.45;3.80;;;23.20;99.90;;;;;;5076568;28;20261;-76
2023/04/18 08:48:27;;;;;;;12.30;3.10;;;23.20;99.90;;;;;;5106520;27;20182;-76
2023/04/18 08:50:58;;;;;;;10.48;3.17;;;23.30;99.90;;;;;;5103243;28;20276;-76
2023/04/18 08:53:25;;;;;;;18.00;3.47;;;23.30;99.90;;;;;;5102275;27;20208;-76
2023/04/18 08:55:59;;;;;;;12.32;3.50;;;23.50;99.90;;;;;;5100226;27;20246;-76
2023/04/18 08:58:26;;;;;;;19.60;3.55;;;23.60;99.90;;;;;;5099548;27;20223;-76
2023/04/18 09:00:53;;;;;;;15.50;3.35;;;23.60;99.90;;;;;;5088414;28;20181;-76
2023/04/18 09:03:39;;;;;;;11.18;3.13;;;23.60;99.90;;;;;;5090942;27;20187;-76
2023/04/18 09:06:17;;;;;;;12.18;3.08;;;23.70;99.90;;;;;;5091047;28;20193;-76
2023/04/18 09:08:57;;;;;;;11.45;3.28;;;23.80;99.90;;;;;;5089178;27;20189;-76
2023/04/18 09:11:33;;;;;;;10.93;3.10;;;23.90;99.90;;;;;;5093267;27;20237;-76
2023/04/18 09:13:59;;;;;;;17.95;3.40;;;24.00;99.90;;;;;;5081050;28;20201;-76
2023/04/18 09:16:26;;;;;;;23.02;3.55;;;24.10;99.90;;;;;;5107453;27;20191;-76
2023/04/18 09:19:17;;;;;;;17.30;3.65;;;24.20;99.90;;;;;;5101813;27;20235;-76
2023/04/18 09:21:47;;;;;;;18.67;3.80;;;24.40;99.90;;;;;;5079651;27;20193;-76
2023/04/18 09:24:26;;;;;;;20.65;3.78;;;24.40;99.90;;;;;;5078689;27;20178;-76
2023/04/18 09:26:54;;;;;;;15.20;2.97;;;24.60;99.90;;;;;;5105547;27;20189;-76
2023/04/18 09:29:40;;;;;;;29.25;4.00;;;24.60;99.90;;;;;;5113205;27;20204;-76
2023/04/18 09:32:06;;;;;;;10.75;3.28;;;24.80;99.90;;;;;;5093577;28;20197;-76
2023/04/18 09:34:32;;;;;;;16.67;3.97;;;24.90;99.90;;;;;;5110215;27;20193;-76
2023/04/18 09:37:12;;;;;;;18.67;3.50;;;25.00;99.90;;;;;;5099068;27;20218;-76
2023/04/18 09:39:43;;;;;;;14.43;3.33;;;25.10;99.90;;;;;;5103187;27;20213;-76
2023/04/18 09:42:09;;;;;;;17.85;3.42;;;25.20;99.90;;;;;;5097664;27;20229;-76
2023/04/18 09:44:37;;;;;;;14.55;3.10;;;25.40;99.90;;;;;;5102324;27;20277;-76
2023/04/18 09:47:09;;;;;;;14.68;3.55;;;25.60;99.90;;;;;;5078639;28;20698;-76
2023/04/18 09:49:35;;;;;;;17.15;3.38;;;25.70;99.90;;;;;;5084509;28;20193;-76
2023/04/18 09:52:06;;;;;;;15.73;2.60;;;25.80;99.90;;;;;;5094571;27;20186;-76
2023/04/18 09:54:37;;;;;;;13.05;3.65;;;26.00;99.90;;;;;;5084425;28;20573;-76
2023/04/18 09:57:07;;;;;;;25.08;4.35;;;26.20;99.90;;;;;;5084158;28;20191;-76
2023/04/18 09:59:53;;;;;;;16.33;3.28;;;26.40;99.90;;;;;;5076439;27;20213;-76
2023/04/18 10:02:23;;;;;;;24.27;3.22;;;26.50;99.90;;;;;;5105919;27;20225;-76
2023/04/18 10:04:51;;;;;;;15.57;3.45;;;26.60;99.90;;;;;;5104821;27;20193;-76
2023/04/18 10:07:17;;;;;;;12.45;3.33;;;26.70;99.90;;;;;;5104088;27;20671;-76
2023/04/18 10:09:48;;;;;;;14.77;3.17;;;26.70;99.90;;;;;;5095217;27;20183;-76
2023/04/18 10:12:17;;;;;;;9.30;2.97;;;26.70;99.90;;;;;;5083557;28;20194;-76
2023/04/18 10:14:44;;;;;;;10.57;2.95;;;26.60;99.90;;;;;;5086596;28;20193;-76
2023/04/18 10:17:12;;;;;;;5.32;2.63;;;26.60;99.90;;;;;;5092870;27;20258;-76
2023/04/18 10:19:43;;;;;;;9.55;2.70;;;26.60;99.90;;;;;;5079596;27;20873;-76
2023/04/18 10:22:12;;;;;;;13.15;2.90;;;26.60;99.90;;;;;;5108692;27;20186;-76
2023/04/18 10:24:54;;;;;;;14.85;2.60;;;26.50;99.90;;;;;;5086660;27;20185;-76
2023/04/18 10:27:58;;;;;;;11.93;2.88;;;26.50;99.90;;;;;;5079362;27;20286;-76
2023/04/18 10:30:40;;;;;;;12.20;2.83;;;26.40;99.90;;;;;;5091484;28;21181;-76
2023/04/18 10:33:44;;;;;;;12.15;2.80;;;26.30;99.90;;;;;;5086739;28;20186;-76
2023/04/18 10:36:11;;;;;;;10.82;3.33;;;26.10;99.90;;;;;;5097497;27;21174;-76
2023/04/18 10:38:44;;;;;;;10.15;2.95;;;26.00;99.90;;;;;;5087005;27;20216;-76
2023/04/18 10:41:22;;;;;;;10.85;3.03;;;26.00;99.90;;;;;;5078614;28;20190;-76
2023/04/18 10:44:20;;;;;;;16.13;2.80;;;25.90;99.90;;;;;;5096639;27;20612;-76
2023/04/18 10:46:50;;;;;;;11.85;2.90;;;25.90;99.90;;;;;;5105343;27;20181;-76
2023/04/18 10:49:16;;;;;;;10.20;2.80;;;25.90;99.90;;;;;;5081136;27;20190;-76
2023/04/18 10:51:48;;;;;;;13.23;2.90;;;25.90;99.90;;;;;;5085418;28;20201;-76
2023/04/18 10:54:36;;;;;;;10.65;2.97;;;25.80;99.90;;;;;;5078457;28;20284;-76
2023/04/18 10:57:06;;;;;;;21.77;3.40;;;25.80;99.90;;;;;;5096447;27;20205;-76
2023/04/18 10:59:37;;;;;;;16.65;3.80;;;25.70;99.90;;;;;;5097275;27;20209;-76
2023/04/18 11:02:25;;;;;;;14.73;3.50;;;25.70;99.90;;;;;;5080860;28;20282;-76
2023/04/18 11:05:01;;;;;;;8.98;2.70;;;25.70;99.90;;;;;;5099713;27;20193;-76
2023/04/18 11:07:50;;;;;;;11.13;3.00;;;25.70;99.90;;;;;;5085033;27;20184;-76
2023/04/18 11:10:24;;;;;;;12.18;3.28;;;25.60;99.90;;;;;;5103849;27;20197;-76
2023/04/18 11:12:52;;;;;;;7.80;2.67;;;25.50;99.90;;;;;;5066087;28;20841;-76
2023/04/18 11:15:22;;;;;;;11.88;3.78;;;25.50;99.90;;;;;;5110507;27;20213;-76
2023/04/18 11:18:03;;;;;;;34.08;7.95;;;25.50;99.90;;;;;;5103601;27;20533;-74
2023/04/18 11:20:47;;;;;;;15.43;3.42;;;25.40;99.90;;;;;;5078675;28;20234;-74
2023/04/18 11:23:24;;;;;;;10.90;3.60;;;25.40;99.90;;;;;;5086661;27;20269;-75
2023/04/18 11:25:53;;;;;;;18.35;4.43;;;25.20;99.90;;;;;;5093994;27;20288;-75
2023/04/18 11:28:23;;;;;;;18.70;4.47;;;25.20;99.90;;;;;;5062437;28;20190;-75
2023/04/18 11:30:49;;;;;;;14.90;3.20;;;25.20;99.90;;;;;;5105365;27;20564;-75
2023/04/18 11:33:16;;;;;;;12.95;3.83;;;25.30;99.90;;;;;;5086878;28;20190;-75
2023/04/18 11:35:45;;;;;;;16.25;3.97;;;25.30;99.90;;;;;;5096174;28;20273;-74
2023/04/18 11:38:13;;;;;;;22.85;4.88;;;25.30;99.90;;;;;;5103090;27;20180;-75
2023/04/18 11:40:48;;;;;;;12.30;3.10;;;25.20;99.90;;;;;;5095367;27;20846;-75
2023/04/18 11:43:21;;;;;;;14.70;3.00;;;25.20;99.90;;;;;;5103088;27;20689;-75
2023/04/18 11:45:56;;;;;;;20.20;3.35;;;25.20;99.90;;;;;;5079019;28;20189;-75
2023/04/18 11:48:32;;;;;;;10.15;2.92;;;25.10;99.90;;;;;;5063690;28;20188;-75
2023/04/18 11:50:59;;;;;;;15.15;3.20;;;25.10;99.90;;;;;;5099683;27;20736;-74
2023/04/18 11:53:38;;;;;;;12.90;3.22;;;25.10;99.90;;;;;;5096637;28;20181;-75
2023/04/18 11:56:05;;;;;;;13.23;2.90;;;25.10;99.90;;;;;;5087453;28;20193;-74
2023/04/18 11:58:35;;;;;;;9.82;3.17;;;25.10;99.90;;;;;;5101979;28;20209;-75
2023/04/18 12:01:23;;;;;;;12.77;2.80;;;25.10;99.90;;;;;;5083243;28;20203;-75
2023/04/18 12:04:07;;;;;;;14.88;3.67;;;25.10;99.90;;;;;;5081154;28;20212;-75
2023/04/18 12:06:47;;;;;;;16.17;4.95;;;25.00;99.90;;;;;;5085435;28;20834;-75
2023/04/18 12:09:16;;;;;;;13.27;4.13;;;25.00;99.90;;;;;;5087916;28;20656;-75
2023/04/18 12:11:42;;;;;;;21.42;4.63;;;25.10;99.90;;;;;;5102847;28;20216;-75
2023/04/18 12:14:21;;;;;;;14.25;3.25;;;25.10;99.90;;;;;;5088979;28;20190;-75
2023/04/18 12:16:51;;;;;;;13.23;3.67;;;25.10;99.90;;;;;;5100060;28;20862;-75
2023/04/18 12:19:19;;;;;;;14.52;3.67;;;25.10;99.90;;;;;;5098732;28;20679;-75
2023/04/18 12:22:03;;;;;;;15.27;3.22;;;25.10;99.90;;;;;;5101819;27;20194;-75
2023/04/18 12:24:31;;;;;;;15.10;3.33;;;25.10;99.90;;;;;;5085221;28;20548;-75
2023/04/18 12:26:58;;;;;;;11.85;3.35;;;25.20;99.90;;;;;;5091698;28;20230;-75
2023/04/18 12:29:26;;;;;;;14.65;3.20;;;25.10;99.90;;;;;;5103141;28;20189;-75
2023/04/18 12:31:52;;;;;;;10.80;2.65;;;25.20;99.90;;;;;;5094782;27;20189;-75
2023/04/18 12:34:19;;;;;;;15.13;3.00;;;25.10;99.90;;;;;;5106774;28;20816;-75
2023/04/18 12:36:45;;;;;;;14.95;3.50;;;25.10;99.90;;;;;;5089494;28;20185;-75
2023/04/18 12:39:12;;;;;;;21.95;3.42;;;25.20;99.90;;;;;;5091026;28;20201;-75
2023/04/18 12:41:38;;;;;;;11.45;2.92;;;25.20;99.90;;;;;;5106529;27;20628;-75
2023/04/18 12:44:05;;;;;;;16.55;3.40;;;25.20;99.90;;;;;;5105605;27;20184;-75